createdAt,value
2019-05-31T00:01:14.472Z,99.90
2019-05-31T00:03:43.776Z,99.90
2019-05-31T00:06:13.208Z,99.90
2019-05-31T00:08:42.483Z,99.90
2019-05-31T00:11:11.857Z,99.90
2019-05-31T00:13:41.169Z,99.90
2019-05-31T00:16:10.430Z,99.90
2019-05-31T00:18:39.717Z,99.90
2019-05-31T00:21:09.000Z,99.90
2019-05-31T00:23:38.323Z,99.90
2019-05-31T00:26:07.616Z,99.90
2019-05-31T00:28:36.908Z,99.90
2019-05-31T00:31:06.495Z,99.90
2019-05-31T00:33:35.826Z,99.90
2019-05-31T00:36:05.915Z,99.90
2019-05-31T00:38:35.262Z,99.90
2019-05-31T00:41:05.463Z,99.90
2019-05-31T00:43:34.836Z,99.90
2019-05-31T00:46:05.720Z,99.90
2019-05-31T00:48:35.190Z,99.90
2019-05-31T00:51:04.515Z,99.90
2019-05-31T00:53:33.830Z,99.90
2019-05-31T00:56:04.481Z,99.90
2019-05-31T00:58:33.952Z,99.90
2019-05-31T01:01:03.874Z,99.90
2019-05-31T01:03:34.272Z,99.90
2019-05-31T01:06:03.590Z,99.90
2019-05-31T01:08:33.169Z,99.90
2019-05-31T01:11:03.807Z,99.90
2019-05-31T01:13:33.191Z,99.90
2019-05-31T01:16:04.146Z,99.90
2019-05-31T01:18:33.526Z,99.90
2019-05-31T01:21:02.930Z,99.90
2019-05-31T01:23:32.295Z,99.90
2019-05-31T01:26:01.572Z,99.90
2019-05-31T01:28:30.845Z,99.90
2019-05-31T01:31:00.136Z,99.90
2019-05-31T01:33:29.442Z,99.90
2019-05-31T01:36:00.187Z,99.90
2019-05-31T01:38:30.027Z,99.90
2019-05-31T01:41:00.506Z,99.90
2019-05-31T01:43:29.998Z,99.90
2019-05-31T01:45:59.280Z,99.90
2019-05-31T01:48:29.011Z,99.90
2019-05-31T01:50:58.334Z,99.90
2019-05-31T01:53:27.605Z,99.90
2019-05-31T01:55:57.053Z,99.90
2019-05-31T01:58:26.621Z,99.90
2019-05-31T02:00:55.943Z,99.90
2019-05-31T02:03:25.235Z,99.90
2019-05-31T02:05:54.529Z,99.90
2019-05-31T02:08:23.782Z,99.90
2019-05-31T02:10:53.090Z,99.90
2019-05-31T02:13:22.578Z,99.90
2019-05-31T02:15:51.913Z,99.90
2019-05-31T02:18:21.160Z,99.90
2019-05-31T02:20:50.508Z,99.90
2019-05-31T02:23:19.791Z,99.90
2019-05-31T02:25:49.101Z,99.90
2019-05-31T02:28:18.378Z,99.90
2019-05-31T02:30:48.046Z,99.90
2019-05-31T02:33:17.877Z,99.90
2019-05-31T02:35:47.371Z,99.90
2019-05-31T02:38:18.272Z,99.90
2019-05-31T02:40:47.889Z,99.90
2019-05-31T02:43:18.566Z,99.90
2019-05-31T02:45:48.549Z,99.90
2019-05-31T02:48:19.076Z,99.90
2019-05-31T02:50:49.108Z,99.90
2019-05-31T02:53:19.261Z,99.90
2019-05-31T02:55:51.792Z,99.90
2019-05-31T02:58:23.443Z,99.90
2019-05-31T03:00:54.047Z,99.90
2019-05-31T03:03:25.372Z,99.90
2019-05-31T03:05:56.979Z,99.90
2019-05-31T03:08:26.272Z,99.90
2019-05-31T03:10:55.584Z,99.90
2019-05-31T03:13:24.864Z,99.90
2019-05-31T03:16:07.100Z,99.90
2019-05-31T03:18:28.369Z,99.90
2019-05-31T03:20:57.669Z,99.90
2019-05-31T03:23:26.951Z,99.90
2019-05-31T03:25:56.255Z,99.90
2019-05-31T03:28:25.527Z,99.90
2019-05-31T03:30:54.910Z,99.90
2019-05-31T03:33:34.202Z,99.90
2019-05-31T03:35:55.224Z,99.90
2019-05-31T03:38:24.550Z,99.90
2019-05-31T03:40:56.842Z,99.90
2019-05-31T03:43:24.936Z,99.90
2019-05-31T03:45:54.253Z,99.90
2019-05-31T03:48:23.959Z,99.90
2019-05-31T03:50:53.599Z,99.90
2019-05-31T03:53:24.124Z,99.90
2019-05-31T03:55:54.077Z,99.90
2019-05-31T03:58:24.953Z,99.90
2019-05-31T04:00:57.034Z,99.90
2019-05-31T04:03:27.708Z,99.90
2019-05-31T04:05:57.373Z,99.90
2019-05-31T04:08:28.047Z,99.90
2019-05-31T04:10:57.898Z,99.90
2019-05-31T04:13:27.757Z,99.90
2019-05-31T04:15:57.659Z,99.90
2019-05-31T04:18:33.940Z,99.90
2019-05-31T04:20:58.012Z,99.90
2019-05-31T04:23:27.707Z,99.90
2019-05-31T04:25:57.050Z,99.90
2019-05-31T04:28:27.489Z,99.90
2019-05-31T04:30:57.129Z,99.90
2019-05-31T04:33:27.189Z,99.90
2019-05-31T04:35:57.182Z,99.90
2019-05-31T04:38:27.451Z,99.90
2019-05-31T04:40:57.248Z,99.90
2019-05-31T04:43:26.790Z,99.90
2019-05-31T04:45:56.226Z,99.90
2019-05-31T04:48:27.524Z,99.90
2019-05-31T04:50:57.040Z,99.90
2019-05-31T04:53:27.398Z,99.90
2019-05-31T04:55:57.134Z,99.90
2019-05-31T04:58:29.988Z,99.90
2019-05-31T05:00:57.397Z,99.90
2019-05-31T05:03:29.655Z,99.90
2019-05-31T05:05:57.695Z,99.90
2019-05-31T05:08:27.148Z,99.90
2019-05-31T05:10:56.618Z,99.90
2019-05-31T05:13:26.984Z,99.90
2019-05-31T05:15:56.437Z,99.90
2019-05-31T05:18:29.491Z,99.90
2019-05-31T05:20:56.772Z,99.90
2019-05-31T05:23:27.290Z,99.90
2019-05-31T05:25:56.863Z,99.90
2019-05-31T05:28:27.419Z,99.90
2019-05-31T05:30:59.537Z,99.90
2019-05-31T05:33:28.848Z,99.90
2019-05-31T05:35:58.340Z,99.90
2019-05-31T05:38:28.740Z,99.90
2019-05-31T05:40:58.251Z,99.90
2019-05-31T05:43:27.549Z,99.90
2019-05-31T05:45:56.820Z,99.90
2019-05-31T05:48:26.173Z,99.90
2019-05-31T05:50:55.466Z,99.90
2019-05-31T05:53:26.672Z,99.90
2019-05-31T05:55:59.029Z,99.90
2019-05-31T05:58:30.107Z,99.90
2019-05-31T06:00:59.353Z,99.90
2019-05-31T06:03:29.710Z,99.90
2019-05-31T06:05:59.577Z,99.90
2019-05-31T06:08:32.704Z,99.90
2019-05-31T06:11:00.680Z,99.90
2019-05-31T06:13:30.555Z,99.90
2019-05-31T06:16:00.417Z,99.90
2019-05-31T06:18:30.359Z,99.90
2019-05-31T06:20:59.702Z,99.90
2019-05-31T06:23:29.064Z,99.90
2019-05-31T06:25:58.378Z,99.90
2019-05-31T06:28:28.652Z,99.90
2019-05-31T06:30:58.115Z,99.90
2019-05-31T06:33:28.016Z,99.90
2019-05-31T06:35:58.563Z,99.90
2019-05-31T06:38:28.826Z,99.90
2019-05-31T06:40:58.674Z,99.90
2019-05-31T06:43:31.623Z,99.90
2019-05-31T06:45:59.254Z,99.90
2019-05-31T06:48:29.589Z,99.90
2019-05-31T06:50:59.117Z,99.90
2019-05-31T06:53:29.296Z,99.90
2019-05-31T06:55:58.717Z,99.90
2019-05-31T06:58:28.036Z,99.90
2019-05-31T07:00:57.333Z,99.90
2019-05-31T07:03:26.725Z,99.90
2019-05-31T07:05:57.413Z,99.90
2019-05-31T07:08:26.951Z,99.90
2019-05-31T07:10:56.385Z,99.90
2019-05-31T07:13:29.709Z,99.90
2019-05-31T07:15:59.533Z,99.90
2019-05-31T07:18:37.440Z,99.90
2019-05-31T07:20:59.924Z,99.90
2019-05-31T07:23:34.084Z,99.90
2019-05-31T07:26:03.306Z,99.90
2019-05-31T07:28:33.269Z,99.90
2019-05-31T07:31:02.770Z,99.90
2019-05-31T07:33:34.093Z,99.90
2019-05-31T07:36:05.988Z,99.90
2019-05-31T07:38:36.518Z,99.90
2019-05-31T07:41:21.935Z,99.90
2019-05-31T07:43:51.273Z,99.90
2019-05-31T07:46:23.480Z,99.90
2019-05-31T07:49:06.076Z,99.90
2019-05-31T07:51:24.029Z,99.90
2019-05-31T07:53:53.408Z,99.90
2019-05-31T07:56:22.694Z,99.90
2019-05-31T07:58:58.248Z,99.90
2019-05-31T08:01:24.546Z,99.90
2019-05-31T08:03:54.003Z,99.90
2019-05-31T08:06:25.242Z,99.90
2019-05-31T08:08:54.837Z,99.90
2019-05-31T08:11:25.034Z,99.90
2019-05-31T08:13:55.149Z,99.90
2019-05-31T08:16:25.271Z,99.90
2019-05-31T08:18:57.767Z,99.90
2019-05-31T08:21:30.121Z,99.90
2019-05-31T08:23:58.072Z,99.90
2019-05-31T08:26:28.336Z,99.90
2019-05-31T08:28:58.360Z,99.90
2019-05-31T08:31:28.253Z,99.90
2019-05-31T08:33:57.591Z,99.90
2019-05-31T08:36:28.307Z,99.90
2019-05-31T08:38:57.773Z,99.90
2019-05-31T08:41:28.450Z,99.90
2019-05-31T08:43:57.847Z,99.90
2019-05-31T08:46:27.145Z,99.90
2019-05-31T08:48:56.410Z,99.90
2019-05-31T08:51:27.074Z,99.90
2019-05-31T08:53:56.781Z,99.90
2019-05-31T08:56:27.220Z,99.90
2019-05-31T08:58:56.662Z,99.90
2019-05-31T09:01:25.975Z,99.90
2019-05-31T09:03:55.279Z,99.90
2019-05-31T09:06:24.568Z,99.90
2019-05-31T09:08:53.853Z,99.90
2019-05-31T09:11:23.127Z,99.90
2019-05-31T09:13:52.992Z,99.90
2019-05-31T09:16:33.688Z,99.90
2019-05-31T09:19:02.240Z,99.90
2019-05-31T09:21:33.054Z,99.90
2019-05-31T09:24:02.575Z,99.90
2019-05-31T09:26:34.641Z,99.90
2019-05-31T09:29:03.321Z,99.90
2019-05-31T09:31:33.429Z,99.90
2019-05-31T09:34:05.586Z,99.90
2019-05-31T09:36:34.800Z,99.90
2019-05-31T09:39:05.760Z,99.90
2019-05-31T09:41:36.925Z,99.90
2019-05-31T09:44:06.185Z,99.90
2019-05-31T09:46:35.600Z,99.90
2019-05-31T09:49:05.655Z,99.90
2019-05-31T09:51:36.623Z,99.90
2019-05-31T09:54:06.133Z,99.90
2019-05-31T09:56:36.976Z,99.90
2019-05-31T09:59:06.865Z,99.90
2019-05-31T10:01:37.258Z,99.90
2019-05-31T10:04:07.512Z,99.90
2019-05-31T10:06:38.328Z,99.90
2019-05-31T10:09:09.031Z,99.90
2019-05-31T10:11:39.987Z,99.90
2019-05-31T10:14:09.699Z,99.90
2019-05-31T10:16:39.002Z,99.90
2019-05-31T10:19:08.360Z,99.90
2019-05-31T10:21:38.768Z,99.90
2019-05-31T10:24:08.233Z,99.90
2019-05-31T10:26:38.819Z,99.90
2019-05-31T10:29:08.296Z,99.90
2019-05-31T10:31:37.637Z,99.90
2019-05-31T10:34:07.014Z,99.90
2019-05-31T10:36:36.708Z,99.90
2019-05-31T10:39:07.817Z,99.90
2019-05-31T10:41:37.842Z,99.90
2019-05-31T10:44:07.343Z,99.90
2019-05-31T10:46:39.186Z,99.90
2019-05-31T10:49:08.094Z,99.90
2019-05-31T10:51:38.665Z,99.90
2019-05-31T10:54:08.135Z,99.90
2019-05-31T10:56:38.574Z,99.90
2019-05-31T10:59:08.088Z,99.90
2019-05-31T11:01:38.426Z,99.90
2019-05-31T11:04:07.897Z,99.90
2019-05-31T11:06:37.272Z,99.90
2019-05-31T11:09:07.676Z,99.90
2019-05-31T11:11:39.820Z,99.90
2019-05-31T11:14:08.032Z,99.90
2019-05-31T11:16:37.422Z,99.90
2019-05-31T11:19:06.681Z,99.90
2019-05-31T11:21:35.983Z,99.90
2019-05-31T11:24:05.300Z,99.90
2019-05-31T11:26:36.669Z,99.90
2019-05-31T11:29:05.707Z,99.90
2019-05-31T11:31:36.217Z,99.90
2019-05-31T11:34:05.687Z,99.90
2019-05-31T11:36:36.225Z,99.90
2019-05-31T11:39:07.893Z,99.90
2019-05-31T11:41:38.426Z,99.90
2019-05-31T11:44:07.913Z,99.90
2019-05-31T11:46:37.847Z,99.90
2019-05-31T11:49:08.236Z,99.90
2019-05-31T11:51:38.694Z,99.90
2019-05-31T11:54:08.180Z,99.90
2019-05-31T11:56:39.715Z,99.90
2019-05-31T11:59:08.590Z,99.90
2019-05-31T12:01:37.926Z,99.90
2019-05-31T12:04:08.568Z,99.90
2019-05-31T12:06:37.949Z,99.90
2019-05-31T12:09:07.556Z,99.90
2019-05-31T12:11:38.147Z,99.90
2019-05-31T12:14:07.536Z,99.90
2019-05-31T12:16:38.208Z,99.90
2019-05-31T12:19:08.289Z,99.90
2019-05-31T12:21:51.214Z,99.90
2019-05-31T12:24:08.613Z,99.90
2019-05-31T12:26:40.126Z,99.90
2019-05-31T12:29:08.889Z,99.90
2019-05-31T12:31:39.719Z,99.90
2019-05-31T12:34:09.714Z,99.90
2019-05-31T12:36:40.509Z,99.90
2019-05-31T12:39:09.893Z,99.90
2019-05-31T12:41:39.653Z,99.90
2019-05-31T12:44:09.528Z,99.90
2019-05-31T12:46:38.838Z,99.90
2019-05-31T12:49:08.392Z,99.90
2019-05-31T12:51:37.712Z,99.90
2019-05-31T12:54:07.057Z,99.90
2019-05-31T12:56:36.351Z,99.90
2019-05-31T12:59:05.708Z,99.90
2019-05-31T13:01:35.022Z,99.90
2019-05-31T13:04:04.429Z,99.90
2019-05-31T13:06:34.046Z,99.90
2019-05-31T13:09:04.449Z,99.90
2019-05-31T13:11:33.770Z,99.90
2019-05-31T13:14:03.136Z,99.90
2019-05-31T13:16:32.488Z,99.90
2019-05-31T13:19:01.858Z,99.90
2019-05-31T13:21:31.250Z,99.90
2019-05-31T13:24:00.599Z,99.90
2019-05-31T13:26:29.946Z,99.90
2019-05-31T13:28:59.585Z,99.90
2019-05-31T13:31:28.889Z,99.90
2019-05-31T13:33:58.189Z,99.90
2019-05-31T13:36:27.462Z,99.90
2019-05-31T13:38:56.912Z,99.90
2019-05-31T13:41:26.197Z,99.90
2019-05-31T13:43:55.884Z,99.90
2019-05-31T13:46:25.357Z,99.90
2019-05-31T13:48:54.602Z,99.90
2019-05-31T13:51:23.966Z,99.90
2019-05-31T13:53:54.411Z,99.90
2019-05-31T13:56:23.844Z,99.90
2019-05-31T13:58:53.230Z,99.40
2019-05-31T14:01:22.663Z,99.30
2019-05-31T14:03:51.961Z,99.60
2019-05-31T14:06:21.260Z,99.60
2019-05-31T14:08:51.821Z,99.20
2019-05-31T14:11:21.211Z,98.90
2019-05-31T14:13:50.491Z,98.90
2019-05-31T14:16:19.781Z,99.30
2019-05-31T14:18:50.302Z,98.40
2019-05-31T14:21:19.742Z,98.20
2019-05-31T14:23:49.355Z,99.10
2019-05-31T14:26:18.780Z,99.20
2019-05-31T14:28:48.057Z,99.10
2019-05-31T14:31:17.756Z,99.40
2019-05-31T14:33:47.037Z,99.40
2019-05-31T14:36:16.404Z,99.60
2019-05-31T14:38:45.694Z,99.60
2019-05-31T14:41:14.988Z,99.30
2019-05-31T14:43:44.772Z,99.20
2019-05-31T14:46:14.153Z,99.00
2019-05-31T14:48:43.477Z,98.90
2019-05-31T14:51:12.855Z,99.90
2019-05-31T14:53:42.145Z,99.50
2019-05-31T14:56:15.593Z,99.80
2019-05-31T14:58:44.923Z,99.40
2019-05-31T15:01:14.228Z,99.60
2019-05-31T15:03:43.512Z,99.60
2019-05-31T15:06:12.785Z,99.90
2019-05-31T15:08:42.438Z,99.60
2019-05-31T15:11:11.864Z,99.10
2019-05-31T15:13:41.214Z,98.90
2019-05-31T15:16:10.865Z,99.10
2019-05-31T15:18:40.718Z,99.10
2019-05-31T15:21:09.991Z,99.30
2019-05-31T15:23:46.804Z,99.90
2019-05-31T15:26:16.097Z,99.50
2019-05-31T15:28:45.397Z,99.90
2019-05-31T15:31:55.494Z,99.60
2019-05-31T15:34:48.866Z,99.60
2019-05-31T15:37:18.143Z,99.60
2019-05-31T15:39:52.071Z,99.50
2019-05-31T15:42:27.390Z,99.90
2019-05-31T15:44:56.879Z,99.90
2019-05-31T15:47:26.216Z,99.60
2019-05-31T15:49:58.618Z,99.90
2019-05-31T15:52:26.510Z,99.50
2019-05-31T15:55:09.720Z,99.80
2019-05-31T15:57:26.822Z,99.90
2019-05-31T15:59:56.122Z,99.90
2019-05-31T16:02:25.392Z,99.90
2019-05-31T16:04:55.920Z,99.90
2019-05-31T16:07:25.280Z,99.90
2019-05-31T16:09:54.585Z,99.90
2019-05-31T16:12:23.888Z,99.90
2019-05-31T16:14:53.269Z,99.90
2019-05-31T16:17:22.588Z,99.90
2019-05-31T16:19:51.930Z,99.90
2019-05-31T16:22:21.707Z,99.90
2019-05-31T16:24:51.340Z,99.90
2019-05-31T16:27:20.612Z,99.90
2019-05-31T16:29:49.905Z,99.90
2019-05-31T16:32:19.174Z,99.90
2019-05-31T16:34:48.445Z,99.90
2019-05-31T16:37:17.783Z,99.90
2019-05-31T16:39:47.081Z,99.90
2019-05-31T16:42:16.343Z,99.90
2019-05-31T16:44:45.993Z,99.90
2019-05-31T16:47:15.673Z,99.90
2019-05-31T16:49:56.933Z,99.90
2019-05-31T16:52:16.648Z,99.90
2019-05-31T16:54:45.979Z,99.90
2019-05-31T16:57:15.330Z,99.90
2019-05-31T16:59:44.525Z,99.90
2019-05-31T17:02:13.817Z,99.90
2019-05-31T17:04:43.468Z,99.90
2019-05-31T17:07:12.925Z,99.90
2019-05-31T17:09:43.090Z,99.90
2019-05-31T17:12:12.681Z,99.90
2019-05-31T17:14:41.975Z,99.90
2019-05-31T17:17:12.176Z,99.90
2019-05-31T17:19:41.668Z,99.90
2019-05-31T17:22:11.093Z,99.90
2019-05-31T17:24:41.705Z,99.90
2019-05-31T17:27:11.248Z,99.90
2019-05-31T17:29:40.593Z,99.90
2019-05-31T17:32:11.307Z,99.90
2019-05-31T17:34:49.058Z,99.90
2019-05-31T17:37:18.354Z,99.90
2019-05-31T17:39:47.687Z,99.90
2019-05-31T17:42:16.985Z,99.90
2019-05-31T17:44:46.260Z,99.90
2019-05-31T17:47:15.556Z,99.90
2019-05-31T17:49:44.827Z,99.90
2019-05-31T17:52:15.392Z,99.90
2019-05-31T17:54:57.347Z,99.90
2019-05-31T17:57:15.857Z,99.90
2019-05-31T17:59:47.930Z,99.90
2019-05-31T18:02:17.255Z,99.90
2019-05-31T18:04:46.569Z,99.90
2019-05-31T18:07:16.574Z,99.90
2019-05-31T18:09:46.191Z,99.90
2019-05-31T18:12:16.903Z,99.90
2019-05-31T18:14:46.289Z,99.90
2019-05-31T18:17:16.709Z,99.90
2019-05-31T18:19:46.069Z,99.90
2019-05-31T18:22:24.263Z,99.90
2019-05-31T18:24:46.415Z,99.90
2019-05-31T18:27:15.850Z,99.90
2019-05-31T18:29:45.164Z,99.90
2019-05-31T18:32:14.483Z,99.90
2019-05-31T18:34:43.849Z,99.90
2019-05-31T18:37:13.615Z,99.90
2019-05-31T18:39:44.203Z,99.90
2019-05-31T18:42:13.896Z,99.90
2019-05-31T18:44:43.374Z,99.90
2019-05-31T18:47:12.662Z,99.90
2019-05-31T18:49:41.993Z,99.90
2019-05-31T18:52:11.657Z,99.90
2019-05-31T18:54:41.612Z,99.90
2019-05-31T18:57:10.957Z,99.90
2019-05-31T18:59:40.220Z,99.90
2019-05-31T19:02:10.672Z,99.90
2019-05-31T19:04:40.858Z,99.90
2019-05-31T19:07:11.045Z,99.90
2019-05-31T19:09:40.435Z,99.90
2019-05-31T19:12:11.417Z,99.90
2019-05-31T19:14:40.785Z,99.90
2019-05-31T19:17:11.116Z,99.90
2019-05-31T19:19:40.509Z,99.90
2019-05-31T19:22:09.792Z,99.90
2019-05-31T19:24:39.434Z,99.90
2019-05-31T19:27:08.736Z,99.90
2019-05-31T19:29:39.213Z,99.90
2019-05-31T19:32:08.510Z,99.90
2019-05-31T19:34:37.950Z,99.90
2019-05-31T19:37:07.270Z,99.90
2019-05-31T19:39:38.737Z,99.90
2019-05-31T19:42:08.036Z,99.90
2019-05-31T19:44:37.631Z,99.90
2019-05-31T19:47:06.942Z,99.90
2019-05-31T19:49:36.271Z,99.90
2019-05-31T19:52:07.328Z,99.90
2019-05-31T19:54:36.692Z,99.90
2019-05-31T19:57:06.141Z,99.90
2019-05-31T19:59:36.408Z,99.90
2019-05-31T20:02:06.429Z,99.90
2019-05-31T20:04:35.708Z,99.90
2019-05-31T20:07:07.366Z,99.90
2019-05-31T20:09:36.694Z,99.90
2019-05-31T20:12:06.088Z,99.90
2019-05-31T20:14:36.973Z,99.90
2019-05-31T20:17:11.561Z,99.90
2019-05-31T20:19:41.076Z,99.90
2019-05-31T20:22:10.350Z,99.90
2019-05-31T20:24:39.724Z,99.90
2019-05-31T20:27:11.644Z,99.90
2019-05-31T20:30:04.051Z,99.90
2019-05-31T20:32:27.285Z,99.90
2019-05-31T20:35:01.570Z,99.90
2019-05-31T20:37:31.232Z,99.90
2019-05-31T20:40:00.530Z,99.90
2019-05-31T20:42:52.269Z,99.90
2019-05-31T20:45:03.557Z,99.90
2019-05-31T20:47:34.979Z,99.90
2019-05-31T20:50:06.035Z,99.90
2019-05-31T20:52:37.451Z,99.90
2019-05-31T20:55:06.763Z,99.90
2019-05-31T20:57:39.175Z,99.90
2019-05-31T21:00:07.588Z,99.90
2019-05-31T21:02:36.981Z,99.90
2019-05-31T21:05:06.848Z,99.90
2019-05-31T21:07:36.174Z,99.90
2019-05-31T21:10:06.407Z,99.90
2019-05-31T21:12:35.685Z,99.90
2019-05-31T21:15:05.378Z,99.90
2019-05-31T21:17:35.073Z,99.90
2019-05-31T21:20:04.959Z,99.90
2019-05-31T21:22:34.625Z,99.90
2019-05-31T21:25:04.275Z,99.90
2019-05-31T21:27:33.897Z,99.90
2019-05-31T21:30:03.829Z,99.90
2019-05-31T21:32:33.556Z,99.90
2019-05-31T21:35:02.996Z,99.90
2019-05-31T21:37:33.069Z,99.90
2019-05-31T21:40:02.495Z,99.90
2019-05-31T21:42:31.870Z,99.90
2019-05-31T21:45:01.131Z,99.90
2019-05-31T21:47:31.558Z,99.90
2019-05-31T21:50:00.998Z,99.90
2019-05-31T21:52:30.336Z,99.90
2019-05-31T21:54:59.747Z,99.90
2019-05-31T21:57:29.493Z,99.90
2019-05-31T21:59:58.921Z,99.90
2019-05-31T22:02:28.172Z,99.90
2019-05-31T22:04:57.502Z,99.90
2019-05-31T22:07:26.793Z,99.90
2019-05-31T22:09:56.085Z,99.90
2019-05-31T22:12:25.371Z,99.90
2019-05-31T22:14:54.744Z,99.90
2019-05-31T22:17:24.106Z,99.90
2019-05-31T22:19:53.479Z,99.90
2019-05-31T22:22:22.747Z,99.90
2019-05-31T22:24:52.056Z,99.90
2019-05-31T22:27:21.670Z,99.90
2019-05-31T22:29:51.269Z,99.90
2019-05-31T22:32:20.891Z,99.90
2019-05-31T22:34:50.566Z,99.90
2019-05-31T22:37:20.092Z,99.90
2019-05-31T22:39:49.461Z,99.90
2019-05-31T22:42:18.840Z,99.90
2019-05-31T22:44:48.125Z,99.90
2019-05-31T22:47:17.411Z,99.90
2019-05-31T22:49:47.020Z,99.90
2019-05-31T22:52:16.328Z,99.90
2019-05-31T22:54:45.700Z,99.90
2019-05-31T22:57:15.059Z,99.90
2019-05-31T22:59:46.611Z,99.90
2019-05-31T23:02:15.373Z,99.90
2019-05-31T23:04:44.697Z,99.90
2019-05-31T23:07:13.984Z,99.90
2019-05-31T23:09:44.343Z,99.90
2019-05-31T23:12:13.828Z,99.90
2019-05-31T23:14:43.110Z,99.90
2019-05-31T23:17:12.808Z,99.90
2019-05-31T23:19:43.326Z,99.90
2019-05-31T23:22:12.697Z,99.90
2019-05-31T23:24:43.642Z,99.90
2019-05-31T23:27:13.293Z,99.90
2019-05-31T23:29:57.009Z,99.90
2019-05-31T23:32:13.613Z,99.90
2019-05-31T23:34:42.912Z,99.90
2019-05-31T23:37:12.227Z,99.90
2019-05-31T23:39:41.997Z,99.90
2019-05-31T23:42:11.533Z,99.90
2019-05-31T23:44:40.831Z,99.90
2019-05-31T23:47:10.608Z,99.90
2019-05-31T23:49:41.010Z,99.90
2019-05-31T23:52:10.803Z,99.90
2019-05-31T23:54:41.450Z,99.90
2019-05-31T23:57:10.848Z,99.90
2019-05-31T23:59:40.144Z,99.90
